sensor_id;sensor_type;location;lat;lon;timestamp;pressure;altitude;pressure_sealevel;temperature;humidity
80726;BME280;70113;59.928;10.878;2023-05-20T00:01:21;100731.41;;;10.54;93.98
80726;BME280;70113;59.928;10.878;2023-05-20T00:03:47;100740.81;;;10.88;91.09
80726;BME280;70113;59.928;10.878;2023-05-20T00:06:12;100741.69;;;10.90;91.20
80726;BME280;70113;59.928;10.878;2023-05-20T00:08:38;100751.53;;;10.70;93.17
80726;BME280;70113;59.928;10.878;2023-05-20T00:11:04;100741.88;;;10.66;92.26
80726;BME280;70113;59.928;10.878;2023-05-20T00:13:30;100743.41;;;10.94;89.20
80726;BME280;70113;59.928;10.878;2023-05-20T00:15:56;100719.47;;;11.08;87.34
80726;BME280;70113;59.928;10.878;2023-05-20T00:18:21;100737.97;;;11.13;89.08
80726;BME280;70113;59.928;10.878;2023-05-20T00:20:47;100729.31;;;10.91;90.06
80726;BME280;70113;59.928;10.878;2023-05-20T00:23:13;100725.69;;;11.04;88.34
80726;BME280;70113;59.928;10.878;2023-05-20T00:25:38;100730.94;;;11.07;88.85
80726;BME280;70113;59.928;10.878;2023-05-20T00:28:05;100738.06;;;11.04;89.69
80726;BME280;70113;59.928;10.878;2023-05-20T00:30:31;100721.34;;;10.97;88.85
80726;BME280;70113;59.928;10.878;2023-05-20T00:32:56;100738.88;;;11.06;90.02
80726;BME280;70113;59.928;10.878;2023-05-20T00:35:22;100734.44;;;11.11;89.26
80726;BME280;70113;59.928;10.878;2023-05-20T00:37:48;100742.41;;;11.08;89.20
80726;BME280;70113;59.928;10.878;2023-05-20T00:40:13;100743.31;;;11.05;89.89
80726;BME280;70113;59.928;10.878;2023-05-20T00:42:40;100731.34;;;10.58;92.93
80726;BME280;70113;59.928;10.878;2023-05-20T00:45:06;100723.16;;;10.92;89.88
80726;BME280;70113;59.928;10.878;2023-05-20T00:47:33;100736.34;;;10.98;90.49
80726;BME280;70113;59.928;10.878;2023-05-20T00:50:00;100725.03;;;10.78;90.46
80726;BME280;70113;59.928;10.878;2023-05-20T00:52:30;100732.91;;;10.85;89.33
80726;BME280;70113;59.928;10.878;2023-05-20T00:54:57;100743.38;;;11.01;89.01
80726;BME280;70113;59.928;10.878;2023-05-20T00:57:23;100723.13;;;10.93;88.14
80726;BME280;70113;59.928;10.878;2023-05-20T00:59:50;100747.66;;;11.15;87.19
80726;BME280;70113;59.928;10.878;2023-05-20T01:02:15;100735.25;;;11.19;87.45
80726;BME280;70113;59.928;10.878;2023-05-20T01:04:41;100722.84;;;11.21;87.05
80726;BME280;70113;59.928;10.878;2023-05-20T01:07:14;100733.53;;;11.12;87.82
80726;BME280;70113;59.928;10.878;2023-05-20T01:09:41;100737.16;;;11.05;88.15
80726;BME280;70113;59.928;10.878;2023-05-20T01:12:24;100727.44;;;11.07;88.97
80726;BME280;70113;59.928;10.878;2023-05-20T01:14:56;100720.38;;;11.07;88.71
80726;BME280;70113;59.928;10.878;2023-05-20T01:17:26;100701.06;;;10.98;89.15
80726;BME280;70113;59.928;10.878;2023-05-20T01:19:53;100724.66;;;11.17;87.17
80726;BME280;70113;59.928;10.878;2023-05-20T01:22:24;100725.50;;;11.21;87.12
80726;BME280;70113;59.928;10.878;2023-05-20T01:24:50;100714.16;;;11.13;88.16
80726;BME280;70113;59.928;10.878;2023-05-20T01:27:20;100720.25;;;11.20;87.76
80726;BME280;70113;59.928;10.878;2023-05-20T01:29:50;100708.16;;;10.91;89.32
80726;BME280;70113;59.928;10.878;2023-05-20T01:32:25;100717.66;;;11.12;89.15
80726;BME280;70113;59.928;10.878;2023-05-20T01:34:52;100698.41;;;10.96;88.77
80726;BME280;70113;59.928;10.878;2023-05-20T01:37:19;100712.66;;;10.81;91.25
80726;BME280;70113;59.928;10.878;2023-05-20T01:39:48;100687.09;;;10.82;90.18
80726;BME280;70113;59.928;10.878;2023-05-20T01:42:16;100703.06;;;10.71;91.49
80726;BME280;70113;59.928;10.878;2023-05-20T01:44:42;100684.50;;;10.76;89.31
80726;BME280;70113;59.928;10.878;2023-05-20T01:47:08;100696.00;;;10.71;90.66
80726;BME280;70113;59.928;10.878;2023-05-20T01:49:34;100675.59;;;10.84;88.70
80726;BME280;70113;59.928;10.878;2023-05-20T01:51:59;100708.31;;;10.72;90.85
80726;BME280;70113;59.928;10.878;2023-05-20T01:54:25;100719.69;;;10.87;89.60
80726;BME280;70113;59.928;10.878;2023-05-20T01:56:51;100713.50;;;10.86;90.21
80726;BME280;70113;59.928;10.878;2023-05-20T01:59:17;100705.44;;;10.97;88.71
80726;BME280;70113;59.928;10.878;2023-05-20T02:01:42;100718.78;;;10.89;90.11
80726;BME280;70113;59.928;10.878;2023-05-20T02:04:08;100706.31;;;11.01;87.85
80726;BME280;70113;59.928;10.878;2023-05-20T02:06:34;100720.38;;;11.06;88.07
80726;BME280;70113;59.928;10.878;2023-05-20T02:08:59;100722.47;;;10.67;91.54
80726;BME280;70113;59.928;10.878;2023-05-20T02:11:25;100717.19;;;10.67;91.47
80726;BME280;70113;59.928;10.878;2023-05-20T02:13:51;100720.66;;;10.73;90.25
80726;BME280;70113;59.928;10.878;2023-05-20T02:16:17;100727.84;;;10.58;92.85
80726;BME280;70113;59.928;10.878;2023-05-20T02:18:42;100727.66;;;10.79;90.04
80726;BME280;70113;59.928;10.878;2023-05-20T02:21:09;100729.25;;;11.02;88.85
80726;BME280;70113;59.928;10.878;2023-05-20T02:23:34;100730.94;;;11.06;88.23
80726;BME280;70113;59.928;10.878;2023-05-20T02:26:01;100726.06;;;10.60;92.33
80726;BME280;70113;59.928;10.878;2023-05-20T02:28:27;100739.13;;;10.78;90.15
80726;BME280;70113;59.928;10.878;2023-05-20T02:30:53;100719.63;;;10.88;89.38
80726;BME280;70113;59.928;10.878;2023-05-20T02:33:19;100740.84;;;10.85;90.27
80726;BME280;70113;59.928;10.878;2023-05-20T02:35:45;100720.69;;;10.72;90.19
80726;BME280;70113;59.928;10.878;2023-05-20T02:38:11;100731.91;;;10.97;88.21
80726;BME280;70113;59.928;10.878;2023-05-20T02:40:37;100737.34;;;10.83;90.37
80726;BME280;70113;59.928;10.878;2023-05-20T02:43:03;100724.81;;;11.02;87.58
80726;BME280;70113;59.928;10.878;2023-05-20T02:45:29;100739.91;;;10.92;88.62
80726;BME280;70113;59.928;10.878;2023-05-20T02:47:55;100740.81;;;10.90;89.29
80726;BME280;70113;59.928;10.878;2023-05-20T02:50:21;100742.75;;;10.68;90.68
80726;BME280;70113;59.928;10.878;2023-05-20T02:52:46;100741.00;;;10.68;90.00
80726;BME280;70113;59.928;10.878;2023-05-20T02:55:12;100724.34;;;10.53;91.15
80726;BME280;70113;59.928;10.878;2023-05-20T02:57:38;100708.50;;;10.51;90.97
80726;BME280;70113;59.928;10.878;2023-05-20T03:00:04;100745.28;;;10.82;89.23
80726;BME280;70113;59.928;10.878;2023-05-20T03:02:32;100741.84;;;10.70;89.67
80726;BME280;70113;59.928;10.878;2023-05-20T03:04:58;100734.75;;;10.76;89.01
80726;BME280;70113;59.928;10.878;2023-05-20T03:07:24;100756.63;;;10.96;88.88
80726;BME280;70113;59.928;10.878;2023-05-20T03:09:50;100753.22;;;10.83;88.51
80726;BME280;70113;59.928;10.878;2023-05-20T03:12:16;100767.22;;;10.98;88.34
80726;BME280;70113;59.928;10.878;2023-05-20T03:14:42;100764.63;;;10.90;88.13
80726;BME280;70113;59.928;10.878;2023-05-20T03:17:08;100778.84;;;10.75;90.07
80726;BME280;70113;59.928;10.878;2023-05-20T03:19:34;100770.84;;;10.81;89.19
80726;BME280;70113;59.928;10.878;2023-05-20T03:22:00;100758.59;;;10.71;89.00
80726;BME280;70113;59.928;10.878;2023-05-20T03:24:27;100776.09;;;10.87;89.14
80726;BME280;70113;59.928;10.878;2023-05-20T03:26:53;100778.00;;;10.68;89.75
80726;BME280;70113;59.928;10.878;2023-05-20T03:29:18;100777.16;;;10.65;90.96
80726;BME280;70113;59.928;10.878;2023-05-20T03:31:44;100779.81;;;10.60;90.98
80726;BME280;70113;59.928;10.878;2023-05-20T03:34:10;100757.78;;;10.58;88.82
80726;BME280;70113;59.928;10.878;2023-05-20T03:36:35;100785.84;;;10.79;89.37
80726;BME280;70113;59.928;10.878;2023-05-20T03:39:01;100777.16;;;10.62;90.39
80726;BME280;70113;59.928;10.878;2023-05-20T03:41:28;100778.16;;;10.41;92.37
80726;BME280;70113;59.928;10.878;2023-05-20T03:43:54;100778.13;;;10.53;91.38
80726;BME280;70113;59.928;10.878;2023-05-20T03:46:20;100788.63;;;10.65;90.91
80726;BME280;70113;59.928;10.878;2023-05-20T03:48:45;100781.47;;;10.77;88.92
80726;BME280;70113;59.928;10.878;2023-05-20T03:51:11;100790.34;;;10.66;90.21
80726;BME280;70113;59.928;10.878;2023-05-20T03:53:37;100786.69;;;10.89;88.14
80726;BME280;70113;59.928;10.878;2023-05-20T03:56:03;100782.44;;;10.62;90.31
80726;BME280;70113;59.928;10.878;2023-05-20T03:58:29;100787.75;;;10.60;90.77
80726;BME280;70113;59.928;10.878;2023-05-20T04:00:55;100777.94;;;10.78;89.46
80726;BME280;70113;59.928;10.878;2023-05-20T04:03:21;100774.38;;;10.83;87.87
80726;BME280;70113;59.928;10.878;2023-05-20T04:05:48;100782.22;;;10.95;88.02
80726;BME280;70113;59.928;10.878;2023-05-20T04:08:14;100779.69;;;10.80;88.58
80726;BME280;70113;59.928;10.878;2023-05-20T04:10:40;100795.59;;;10.72;89.30
80726;BME280;70113;59.928;10.878;2023-05-20T04:13:07;100791.22;;;10.67;90.02
80726;BME280;70113;59.928;10.878;2023-05-20T04:15:37;100789.50;;;10.61;89.66
80726;BME280;70113;59.928;10.878;2023-05-20T04:18:05;100796.53;;;10.64;89.55
80726;BME280;70113;59.928;10.878;2023-05-20T04:20:31;100779.03;;;10.51;90.86
80726;BME280;70113;59.928;10.878;2023-05-20T04:22:57;100783.38;;;10.58;90.21
80726;BME280;70113;59.928;10.878;2023-05-20T04:25:23;100783.38;;;10.58;89.54
80726;BME280;70113;59.928;10.878;2023-05-20T04:27:50;100800.91;;;10.74;89.17
80726;BME280;70113;59.928;10.878;2023-05-20T04:30:18;100792.03;;;10.78;88.33
80726;BME280;70113;59.928;10.878;2023-05-20T04:32:47;100800.97;;;10.60;89.40
80726;BME280;70113;59.928;10.878;2023-05-20T04:35:12;100794.84;;;10.57;89.26
80726;BME280;70113;59.928;10.878;2023-05-20T04:37:39;100806.13;;;10.83;87.88
80726;BME280;70113;59.928;10.878;2023-05-20T04:40:06;100812.22;;;10.88;87.30
80726;BME280;70113;59.928;10.878;2023-05-20T04:42:34;100812.38;;;10.67;89.20
80726;BME280;70113;59.928;10.878;2023-05-20T04:44:59;100808.94;;;10.57;89.46
80726;BME280;70113;59.928;10.878;2023-05-20T04:47:27;100815.72;;;10.93;86.30
80726;BME280;70113;59.928;10.878;2023-05-20T04:49:54;100818.31;;;11.01;86.56
80726;BME280;70113;59.928;10.878;2023-05-20T04:52:23;100811.25;;;11.02;87.45
80726;BME280;70113;59.928;10.878;2023-05-20T04:54:49;100812.31;;;10.76;89.23
80726;BME280;70113;59.928;10.878;2023-05-20T04:57:16;100809.78;;;10.62;89.63
80726;BME280;70113;59.928;10.878;2023-05-20T04:59:46;100801.63;;;10.91;87.44
80726;BME280;70113;59.928;10.878;2023-05-20T05:02:12;100771.81;;;10.71;88.35
80726;BME280;70113;59.928;10.878;2023-05-20T05:04:39;100803.38;;;10.95;86.81
80726;BME280;70113;59.928;10.878;2023-05-20T05:07:04;100814.72;;;11.13;86.61
80726;BME280;70113;59.928;10.878;2023-05-20T05:09:30;100812.03;;;11.16;85.95
80726;BME280;70113;59.928;10.878;2023-05-20T05:11:56;100799.09;;;10.78;88.31
80726;BME280;70113;59.928;10.878;2023-05-20T05:14:22;100805.13;;;10.97;87.76
80726;BME280;70113;59.928;10.878;2023-05-20T05:16:48;100799.84;;;10.93;87.38
80726;BME280;70113;59.928;10.878;2023-05-20T05:19:14;100816.56;;;11.00;87.57
80726;BME280;70113;59.928;10.878;2023-05-20T05:21:40;100810.34;;;11.06;87.79
80726;BME280;70113;59.928;10.878;2023-05-20T05:24:06;100799.81;;;10.97;86.70
80726;BME280;70113;59.928;10.878;2023-05-20T05:26:32;100798.19;;;10.82;87.88
80726;BME280;70113;59.928;10.878;2023-05-20T05:28:58;100809.53;;;10.94;86.57
80726;BME280;70113;59.928;10.878;2023-05-20T05:31:24;100808.69;;;10.91;87.96
80726;BME280;70113;59.928;10.878;2023-05-20T05:33:50;100824.66;;;10.80;88.45
80726;BME280;70113;59.928;10.878;2023-05-20T05:36:16;100815.94;;;10.66;88.66
80726;BME280;70113;59.928;10.878;2023-05-20T05:38:41;100813.25;;;10.72;88.55
80726;BME280;70113;59.928;10.878;2023-05-20T05:41:08;100823.88;;;10.66;90.08
80726;BME280;70113;59.928;10.878;2023-05-20T05:43:34;100817.50;;;10.91;87.19
80726;BME280;70113;59.928;10.878;2023-05-20T05:45:59;100815.63;;;11.06;86.28
80726;BME280;70113;59.928;10.878;2023-05-20T05:48:25;100811.22;;;11.03;87.79
80726;BME280;70113;59.928;10.878;2023-05-20T05:50:51;100814.06;;;10.79;88.76
80726;BME280;70113;59.928;10.878;2023-05-20T05:53:17;100827.09;;;11.06;86.58
80726;BME280;70113;59.928;10.878;2023-05-20T05:55:45;100825.41;;;10.98;86.92
80726;BME280;70113;59.928;10.878;2023-05-20T05:58:11;100822.66;;;11.11;87.31
80726;BME280;70113;59.928;10.878;2023-05-20T06:00:37;100822.75;;;10.94;87.89
80726;BME280;70113;59.928;10.878;2023-05-20T06:03:03;100830.84;;;10.78;88.08
80726;BME280;70113;59.928;10.878;2023-05-20T06:05:30;100833.53;;;10.71;88.52
80726;BME280;70113;59.928;10.878;2023-05-20T06:07:56;100822.03;;;10.76;89.23
80726;BME280;70113;59.928;10.878;2023-05-20T06:10:21;100817.59;;;10.79;89.15
80726;BME280;70113;59.928;10.878;2023-05-20T06:12:47;100789.56;;;10.57;89.65
80726;BME280;70113;59.928;10.878;2023-05-20T06:15:13;100821.94;;;10.89;88.24
80726;BME280;70113;59.928;10.878;2023-05-20T06:17:39;100820.03;;;11.08;86.32
80726;BME280;70113;59.928;10.878;2023-05-20T06:20:05;100820.06;;;11.07;85.57
80726;BME280;70113;59.928;10.878;2023-05-20T06:22:31;100816.34;;;11.26;84.61
80726;BME280;70113;59.928;10.878;2023-05-20T06:24:57;100824.31;;;11.23;85.67
80726;BME280;70113;59.928;10.878;2023-05-20T06:27:25;100832.25;;;11.23;84.95
80726;BME280;70113;59.928;10.878;2023-05-20T06:29:51;100827.03;;;11.14;85.96
80726;BME280;70113;59.928;10.878;2023-05-20T06:32:17;100835.13;;;10.94;86.50
80726;BME280;70113;59.928;10.878;2023-05-20T06:34:43;100840.31;;;11.08;85.75
80726;BME280;70113;59.928;10.878;2023-05-20T06:37:09;100840.53;;;10.80;88.29
80726;BME280;70113;59.928;10.878;2023-05-20T06:39:35;100843.22;;;10.72;88.20
80726;BME280;70113;59.928;10.878;2023-05-20T06:42:02;100841.34;;;10.90;86.59
80726;BME280;70113;59.928;10.878;2023-05-20T06:44:27;100837.94;;;10.69;88.94
80726;BME280;70113;59.928;10.878;2023-05-20T06:46:54;100831.50;;;11.06;85.52
80726;BME280;70113;59.928;10.878;2023-05-20T06:49:19;100829.84;;;10.91;87.52
80726;BME280;70113;59.928;10.878;2023-05-20T06:51:45;100820.16;;;10.88;87.12
80726;BME280;70113;59.928;10.878;2023-05-20T06:54:10;100824.34;;;11.20;84.76
80726;BME280;70113;59.928;10.878;2023-05-20T06:56:36;100820.88;;;11.12;86.20
80726;BME280;70113;59.928;10.878;2023-05-20T06:59:02;100826.13;;;11.15;86.50
80726;BME280;70113;59.928;10.878;2023-05-20T07:01:28;100832.38;;;11.06;86.98
80726;BME280;70113;59.928;10.878;2023-05-20T07:03:53;100821.88;;;10.97;87.24
80726;BME280;70113;59.928;10.878;2023-05-20T07:06:19;100831.50;;;11.06;87.26
80726;BME280;70113;59.928;10.878;2023-05-20T07:08:44;100813.91;;;11.02;87.01
80726;BME280;70113;59.928;10.878;2023-05-20T07:11:10;100835.81;;;11.19;85.34
80726;BME280;70113;59.928;10.878;2023-05-20T07:13:36;100821.66;;;11.25;85.58
80726;BME280;70113;59.928;10.878;2023-05-20T07:16:02;100813.25;;;10.70;87.53
80726;BME280;70113;59.928;10.878;2023-05-20T07:18:28;100835.22;;;10.83;87.74
80726;BME280;70113;59.928;10.878;2023-05-20T07:20:53;100821.78;;;11.12;85.99
80726;BME280;70113;59.928;10.878;2023-05-20T07:23:22;100831.56;;;10.97;87.34
80726;BME280;70113;59.928;10.878;2023-05-20T07:25:47;100829.66;;;11.17;86.30
80726;BME280;70113;59.928;10.878;2023-05-20T07:28:17;100836.78;;;11.09;85.60
80726;BME280;70113;59.928;10.878;2023-05-20T07:30:43;100816.38;;;11.25;85.06
80726;BME280;70113;59.928;10.878;2023-05-20T07:33:17;100835.00;;;11.12;86.27
80726;BME280;70113;59.928;10.878;2023-05-20T07:35:43;100812.09;;;11.10;86.13
80726;BME280;70113;59.928;10.878;2023-05-20T07:38:10;100823.41;;;11.24;85.22
80726;BME280;70113;59.928;10.878;2023-05-20T07:40:38;100833.03;;;11.34;84.73
80726;BME280;70113;59.928;10.878;2023-05-20T07:43:06;100817.13;;;11.37;85.02
80726;BME280;70113;59.928;10.878;2023-05-20T07:45:34;100823.19;;;11.49;84.75
80726;BME280;70113;59.928;10.878;2023-05-20T07:48:01;100802.97;;;11.38;85.27
80726;BME280;70113;59.928;10.878;2023-05-20T07:50:27;100820.53;;;11.52;84.07
80726;BME280;70113;59.928;10.878;2023-05-20T07:52:52;100810.72;;;11.61;82.77
80726;BME280;70113;59.928;10.878;2023-05-20T07:55:18;100818.81;;;11.45;83.99
80726;BME280;70113;59.928;10.878;2023-05-20T07:57:44;100818.78;;;11.48;82.96
80726;BME280;70113;59.928;10.878;2023-05-20T08:00:10;100813.50;;;11.46;82.35
80726;BME280;70113;59.928;10.878;2023-05-20T08:02:37;100817.91;;;11.47;84.67
80726;BME280;70113;59.928;10.878;2023-05-20T08:05:03;100820.50;;;11.55;83.01
80726;BME280;70113;59.928;10.878;2023-05-20T08:07:29;100817.84;;;11.55;84.42
80726;BME280;70113;59.928;10.878;2023-05-20T08:09:56;100814.34;;;11.50;84.64
80726;BME280;70113;59.928;10.878;2023-05-20T08:12:22;100822.06;;;11.73;84.08
80726;BME280;70113;59.928;10.878;2023-05-20T08:14:47;100820.44;;;11.59;84.51
80726;BME280;70113;59.928;10.878;2023-05-20T08:17:13;100809.84;;;11.59;84.34
80726;BME280;70113;59.928;10.878;2023-05-20T08:19:39;100799.97;;;11.74;83.85
80726;BME280;70113;59.928;10.878;2023-05-20T08:22:05;100808.75;;;11.79;83.47
80726;BME280;70113;59.928;10.878;2023-05-20T08:24:32;100791.09;;;11.81;83.67
80726;BME280;70113;59.928;10.878;2023-05-20T08:26:57;100806.84;;;11.96;83.65
80726;BME280;70113;59.928;10.878;2023-05-20T08:29:23;100795.47;;;11.80;83.52
80726;BME280;70113;59.928;10.878;2023-05-20T08:31:49;100800.66;;;11.94;82.51
80726;BME280;70113;59.928;10.878;2023-05-20T08:34:15;100798.97;;;11.89;82.87
80726;BME280;70113;59.928;10.878;2023-05-20T08:36:41;100810.16;;;12.12;81.71
80726;BME280;70113;59.928;10.878;2023-05-20T08:39:09;100798.78;;;12.04;82.59
80726;BME280;70113;59.928;10.878;2023-05-20T08:41:37;100807.34;;;12.26;81.84
80726;BME280;70113;59.928;10.878;2023-05-20T08:44:04;100797.59;;;12.26;81.00
80726;BME280;70113;59.928;10.878;2023-05-20T08:46:33;100754.69;;;11.97;80.61
80726;BME280;70113;59.928;10.878;2023-05-20T08:48:59;100806.34;;;12.35;80.85
80726;BME280;70113;59.928;10.878;2023-05-20T08:51:26;100796.78;;;12.23;80.75
80726;BME280;70113;59.928;10.878;2023-05-20T08:53:52;100785.41;;;12.13;81.24
80726;BME280;70113;59.928;10.878;2023-05-20T08:56:18;100792.44;;;12.17;82.04
80726;BME280;70113;59.928;10.878;2023-05-20T08:58:44;100793.09;;;12.35;82.37
80726;BME280;70113;59.928;10.878;2023-05-20T09:01:11;100770.81;;;12.46;79.98
80726;BME280;70113;59.928;10.878;2023-05-20T09:03:37;100797.91;;;12.68;79.20
80726;BME280;70113;59.928;10.878;2023-05-20T09:06:07;100774.22;;;12.56;80.37
80726;BME280;70113;59.928;10.878;2023-05-20T09:08:33;100787.22;;;12.71;80.05
80726;BME280;70113;59.928;10.878;2023-05-20T09:11:00;100786.16;;;12.83;79.68
80726;BME280;70113;59.928;10.878;2023-05-20T09:13:26;100777.16;;;12.93;78.89
80726;BME280;70113;59.928;10.878;2023-05-20T09:15:54;100777.25;;;12.87;78.84
80726;BME280;70113;59.928;10.878;2023-05-20T09:18:20;100776.22;;;12.96;79.47
80726;BME280;70113;59.928;10.878;2023-05-20T09:20:50;100759.50;;;12.91;78.34
80726;BME280;70113;59.928;10.878;2023-05-20T09:23:18;100754.00;;;13.03;78.46
80726;BME280;70113;59.928;10.878;2023-05-20T09:28:11;100765.19;;;13.20;78.15
80726;BME280;70113;59.928;10.878;2023-05-20T09:30:37;100766.63;;;13.40;77.83
80726;BME280;70113;59.928;10.878;2023-05-20T09:33:04;100752.56;;;13.36;76.47
80726;BME280;70113;59.928;10.878;2023-05-20T09:35:34;100757.00;;;13.36;76.15
80726;BME280;70113;59.928;10.878;2023-05-20T09:38:01;100772.56;;;13.54;74.99
80726;BME280;70113;59.928;10.878;2023-05-20T09:40:29;100744.34;;;13.47;74.41
80726;BME280;70113;59.928;10.878;2023-05-20T09:43:03;100749.47;;;13.59;74.93
80726;BME280;70113;59.928;10.878;2023-05-20T09:45:29;100753.69;;;13.70;74.33
80726;BME280;70113;59.928;10.878;2023-05-20T09:47:55;100764.06;;;13.82;73.60
80726;BME280;70113;59.928;10.878;2023-05-20T09:50:22;100759.41;;;13.91;73.02
80726;BME280;70113;59.928;10.878;2023-05-20T09:52:50;100760.47;;;13.83;73.12
80726;BME280;70113;59.928;10.878;2023-05-20T09:55:18;100754.16;;;13.90;71.92
80726;BME280;70113;59.928;10.878;2023-05-20T09:57:44;100764.72;;;13.93;71.72
80726;BME280;70113;59.928;10.878;2023-05-20T10:00:12;100758.28;;;14.03;70.42
80726;BME280;70113;59.928;10.878;2023-05-20T10:02:43;100756.41;;;14.08;70.83
80726;BME280;70113;59.928;10.878;2023-05-20T10:05:15;100753.59;;;14.16;70.18
80726;BME280;70113;59.928;10.878;2023-05-20T10:11:12;100742.63;;;14.30;68.97
80726;BME280;70113;59.928;10.878;2023-05-20T10:13:49;100737.72;;;14.50;67.95
80726;BME280;70113;59.928;10.878;2023-05-20T10:16:33;100736.84;;;14.51;69.00
80726;BME280;70113;59.928;10.878;2023-05-20T10:19:26;100731.63;;;14.47;68.69
80726;BME280;70113;59.928;10.878;2023-05-20T10:24:29;100732.00;;;14.69;67.78
80726;BME280;70113;59.928;10.878;2023-05-20T10:26:56;100724.72;;;14.77;66.92
80726;BME280;70113;59.928;10.878;2023-05-20T10:29:22;100730.88;;;14.79;68.16
80726;BME280;70113;59.928;10.878;2023-05-20T10:31:51;100724.41;;;14.89;66.55
80726;BME280;70113;59.928;10.878;2023-05-20T10:34:18;100720.88;;;14.87;66.89
80726;BME280;70113;59.928;10.878;2023-05-20T10:37:05;100708.66;;;14.80;67.18
80726;BME280;70113;59.928;10.878;2023-05-20T10:39:31;100711.78;;;14.96;66.77
80726;BME280;70113;59.928;10.878;2023-05-20T10:42:07;100720.47;;;15.04;66.14
80726;BME280;70113;59.928;10.878;2023-05-20T10:44:43;100712.47;;;15.04;66.72
80726;BME280;70113;59.928;10.878;2023-05-20T10:47:09;100708.59;;;15.17;64.08
80726;BME280;70113;59.928;10.878;2023-05-20T10:49:35;100717.47;;;15.16;58.33
80726;BME280;70113;59.928;10.878;2023-05-20T10:52:07;100713.84;;;15.19;59.01
80726;BME280;70113;59.928;10.878;2023-05-20T10:54:35;100705.69;;;15.25;62.16
80726;BME280;70113;59.928;10.878;2023-05-20T10:57:05;100709.91;;;15.34;62.06
80726;BME280;70113;59.928;10.878;2023-05-20T10:59:34;100680.00;;;15.22;59.33
80726;BME280;70113;59.928;10.878;2023-05-20T11:02:02;100713.28;;;15.40;60.10
80726;BME280;70113;59.928;10.878;2023-05-20T11:04:28;100690.22;;;15.39;59.30
80726;BME280;70113;59.928;10.878;2023-05-20T11:06:54;100701.97;;;15.63;58.43
80726;BME280;70113;59.928;10.878;2023-05-20T11:09:21;100698.38;;;15.64;58.77
80726;BME280;70113;59.928;10.878;2023-05-20T11:11:49;100691.13;;;15.71;59.35
80726;BME280;70113;59.928;10.878;2023-05-20T11:14:15;100704.09;;;15.83;54.50
80726;BME280;70113;59.928;10.878;2023-05-20T11:16:42;100687.25;;;15.81;55.34
80726;BME280;70113;59.928;10.878;2023-05-20T11:19:15;100698.66;;;15.86;53.20
80726;BME280;70113;59.928;10.878;2023-05-20T11:21:42;100696.19;;;16.10;52.70
80726;BME280;70113;59.928;10.878;2023-05-20T11:24:08;100691.13;;;16.01;51.53
80726;BME280;70113;59.928;10.878;2023-05-20T11:26:35;100692.44;;;16.15;53.16
80726;BME280;70113;59.928;10.878;2023-05-20T11:29:01;100696.72;;;16.21;50.48
80726;BME280;70113;59.928;10.878;2023-05-20T11:31:27;100683.97;;;16.31;51.13
80726;BME280;70113;59.928;10.878;2023-05-20T11:33:53;100693.56;;;16.36;51.89
80726;BME280;70113;59.928;10.878;2023-05-20T11:36:19;100683.66;;;16.40;50.54
80726;BME280;70113;59.928;10.878;2023-05-20T11:38:45;100661.91;;;16.52;51.26
80726;BME280;70113;59.928;10.878;2023-05-20T11:41:12;100678.72;;;16.82;51.64
80726;BME280;70113;59.928;10.878;2023-05-20T11:43:37;100659.66;;;16.67;51.05
80726;BME280;70113;59.928;10.878;2023-05-20T11:46:03;100656.00;;;16.69;51.90
80726;BME280;70113;59.928;10.878;2023-05-20T11:48:29;100651.56;;;16.68;50.26
80726;BME280;70113;59.928;10.878;2023-05-20T11:50:55;100653.75;;;16.83;50.67
80726;BME280;70113;59.928;10.878;2023-05-20T11:53:22;100661.75;;;16.83;50.08
80726;BME280;70113;59.928;10.878;2023-05-20T11:55:49;100663.34;;;16.89;49.34
80726;BME280;70113;59.928;10.878;2023-05-20T11:58:17;100652.53;;;16.94;48.84
80726;BME280;70113;59.928;10.878;2023-05-20T12:00:44;100652.72;;;17.13;50.70
80726;BME280;70113;59.928;10.878;2023-05-20T12:03:09;100656.09;;;17.19;51.03
80726;BME280;70113;59.928;10.878;2023-05-20T12:05:36;100646.84;;;17.03;50.90
80726;BME280;70113;59.928;10.878;2023-05-20T12:08:02;100646.19;;;17.21;49.99
80726;BME280;70113;59.928;10.878;2023-05-20T12:10:28;100646.03;;;17.26;50.52
80726;BME280;70113;59.928;10.878;2023-05-20T12:12:54;100637.03;;;17.28;51.52
80726;BME280;70113;59.928;10.878;2023-05-20T12:15:20;100643.88;;;17.36;49.29
80726;BME280;70113;59.928;10.878;2023-05-20T12:17:51;100646.81;;;17.28;47.97
80726;BME280;70113;59.928;10.878;2023-05-20T12:20:20;100634.41;;;17.27;47.51
80726;BME280;70113;59.928;10.878;2023-05-20T12:22:46;100646.94;;;17.50;48.04
80726;BME280;70113;59.928;10.878;2023-05-20T12:25:14;100637.13;;;17.72;48.49
80726;BME280;70113;59.928;10.878;2023-05-20T12:27:41;100628.75;;;17.83;47.84
80726;BME280;70113;59.928;10.878;2023-05-20T12:30:08;100631.38;;;17.85;46.28
80726;BME280;70113;59.928;10.878;2023-05-20T12:32:36;100633.97;;;17.86;48.17
80726;BME280;70113;59.928;10.878;2023-05-20T12:35:03;100622.91;;;17.95;46.39
80726;BME280;70113;59.928;10.878;2023-05-20T12:37:28;100625.28;;;18.03;47.46
80726;BME280;70113;59.928;10.878;2023-05-20T12:39:55;100612.16;;;17.97;46.79
80726;BME280;70113;59.928;10.878;2023-05-20T12:42:20;100608.91;;;17.89;48.73
80726;BME280;70113;59.928;10.878;2023-05-20T12:44:46;100624.41;;;18.03;48.15
80726;BME280;70113;59.928;10.878;2023-05-20T12:47:12;100608.50;;;17.99;49.19